createdAt,value
2023-04-09T00:00:53.085Z,0.00
2023-04-09T00:01:53.572Z,0.00
2023-04-09T00:02:52.790Z,0.00
2023-04-09T00:03:52.909Z,0.00
2023-04-09T00:04:53.022Z,0.00
2023-04-09T00:05:53.198Z,0.00
2023-04-09T00:06:53.424Z,0.00
2023-04-09T00:07:53.646Z,0.00
2023-04-09T00:08:54.734Z,0.00
2023-04-09T00:09:55.557Z,0.00
2023-04-09T00:10:55.058Z,0.00
2023-04-09T00:11:55.087Z,0.00
2023-04-09T00:12:54.517Z,0.00
2023-04-09T00:13:55.667Z,0.00
2023-04-09T00:14:54.821Z,0.00
2023-04-09T00:15:55.612Z,0.00
2023-04-09T00:16:56.062Z,0.00
2023-04-09T00:17:55.406Z,0.00
2023-04-09T00:18:57.103Z,0.00
2023-04-09T00:19:55.746Z,0.00
2023-04-09T00:20:56.596Z,0.00
2023-04-09T00:21:56.550Z,0.00
2023-04-09T00:22:56.200Z,0.00
2023-04-09T00:23:56.394Z,0.00
2023-04-09T00:24:57.586Z,0.00
2023-04-09T00:25:56.765Z,0.00
2023-04-09T00:26:57.616Z,0.00
2023-04-09T00:27:57.145Z,0.00
2023-04-09T00:28:57.276Z,0.00
2023-04-09T00:29:57.449Z,0.00
2023-04-09T00:30:57.604Z,0.00
2023-04-09T00:31:57.816Z,0.00
2023-04-09T00:32:57.983Z,0.00
2023-04-09T00:33:59.052Z,0.00
2023-04-09T00:34:59.104Z,0.00
2023-04-09T00:35:58.633Z,0.00
2023-04-09T00:36:58.866Z,0.00
2023-04-09T00:37:59.592Z,0.00
2023-04-09T00:39:00.062Z,0.00
2023-04-09T00:40:00.059Z,0.00
2023-04-09T00:41:01.082Z,0.00
2023-04-09T00:41:59.719Z,0.00
2023-04-09T00:43:00.427Z,0.00
2023-04-09T00:44:00.590Z,0.00
2023-04-09T00:45:00.216Z,0.00
2023-04-09T00:46:00.353Z,0.00
2023-04-09T00:47:02.053Z,0.00
2023-04-09T00:48:00.846Z,0.00
2023-04-09T00:49:01.557Z,0.00
2023-04-09T00:50:01.554Z,0.00
2023-04-09T00:51:01.062Z,0.00
2023-04-09T00:52:01.222Z,0.00
2023-04-09T00:53:02.925Z,0.00
2023-04-09T00:54:02.560Z,0.00
2023-04-09T00:55:01.688Z,0.00
2023-04-09T00:56:01.866Z,0.00
2023-04-09T00:57:02.038Z,0.00
2023-04-09T00:58:03.104Z,0.00
2023-04-09T00:59:02.610Z,0.00
2023-04-09T01:00:03.094Z,0.00
2023-04-09T01:01:02.747Z,0.00
2023-04-09T01:02:03.064Z,0.00
2023-04-09T01:03:03.232Z,0.00
2023-04-09T01:04:03.291Z,0.00
2023-04-09T01:05:03.451Z,0.00
2023-04-09T01:06:05.558Z,0.00
2023-04-09T01:07:03.814Z,0.00
2023-04-09T01:08:03.987Z,0.00
2023-04-09T01:09:04.163Z,0.00
2023-04-09T01:10:04.282Z,0.00
2023-04-09T01:11:04.424Z,0.00
2023-04-09T01:12:04.558Z,0.00
2023-04-09T01:13:05.112Z,0.00
2023-04-09T01:14:04.916Z,0.00
2023-04-09T01:15:05.081Z,0.00
2023-04-09T01:16:05.254Z,0.00
2023-04-09T01:17:06.104Z,0.00
2023-04-09T01:18:05.703Z,0.00
2023-04-09T01:19:05.754Z,0.00
2023-04-09T01:20:05.929Z,0.00
2023-04-09T01:21:06.132Z,0.00
2023-04-09T01:22:06.311Z,0.00
2023-04-09T01:23:06.489Z,0.00
2023-04-09T01:24:07.926Z,0.00
2023-04-09T01:25:06.765Z,0.00
2023-04-09T01:26:07.564Z,0.00
2023-04-09T01:27:07.059Z,0.00
2023-04-09T01:28:07.176Z,0.00
2023-04-09T01:29:07.606Z,0.00
2023-04-09T01:30:07.510Z,0.00
2023-04-09T01:31:07.785Z,0.00
2023-04-09T01:32:07.740Z,0.00
2023-04-09T01:33:07.896Z,0.00
2023-04-09T01:34:08.043Z,0.00
2023-04-09T01:35:08.167Z,0.00
2023-04-09T01:36:09.624Z,0.00
2023-04-09T01:37:08.486Z,0.00
2023-04-09T01:38:10.071Z,0.00
2023-04-09T01:39:09.569Z,0.00
2023-04-09T01:40:08.953Z,0.00
2023-04-09T01:41:10.066Z,0.00
2023-04-09T01:42:09.276Z,0.00
2023-04-09T01:43:10.930Z,0.00
2023-04-09T01:44:10.132Z,0.00
2023-04-09T01:45:10.570Z,0.00
2023-04-09T01:46:10.027Z,0.00
2023-04-09T01:47:11.066Z,0.00
2023-04-09T01:48:10.330Z,0.00
2023-04-09T01:49:10.497Z,0.00
2023-04-09T01:50:10.669Z,0.00
2023-04-09T01:51:10.840Z,0.00
2023-04-09T01:52:11.006Z,0.00
2023-04-09T01:53:11.140Z,0.00
2023-04-09T01:54:12.110Z,0.00
2023-04-09T01:55:11.536Z,0.00
2023-04-09T01:56:11.716Z,0.00
2023-04-09T01:57:11.900Z,0.00
2023-04-09T01:58:12.607Z,0.00
2023-04-09T01:59:12.252Z,0.00
2023-04-09T02:00:12.617Z,0.00
2023-04-09T02:01:13.675Z,0.00
2023-04-09T02:02:12.909Z,0.00
2023-04-09T02:03:13.247Z,0.00
2023-04-09T02:04:14.933Z,0.00
2023-04-09T02:05:13.430Z,0.00
2023-04-09T02:06:14.648Z,0.00
2023-04-09T02:07:13.820Z,0.00
2023-04-09T02:08:15.072Z,0.00
2023-04-09T02:09:14.374Z,0.00
2023-04-09T02:10:15.467Z,0.00
2023-04-09T02:11:15.608Z,0.00
2023-04-09T02:12:15.576Z,0.00
2023-04-09T02:13:14.992Z,0.00
2023-04-09T02:14:15.193Z,0.00
2023-04-09T02:15:15.396Z,0.00
2023-04-09T02:16:15.690Z,0.00
2023-04-09T02:17:15.797Z,0.00
2023-04-09T02:18:16.006Z,0.00
2023-04-09T02:19:16.578Z,0.00
2023-04-09T02:20:16.392Z,0.00
2023-04-09T02:21:16.609Z,0.00
2023-04-09T02:22:16.860Z,0.00
2023-04-09T02:23:16.959Z,0.00
2023-04-09T02:24:17.169Z,0.00
2023-04-09T02:25:17.396Z,0.00
2023-04-09T02:26:18.595Z,0.00
2023-04-09T02:27:17.778Z,0.00
2023-04-09T02:28:17.991Z,0.00
2023-04-09T02:29:18.172Z,0.00
2023-04-09T02:30:18.395Z,0.00
2023-04-09T02:31:18.488Z,0.00
2023-04-09T02:32:18.604Z,0.00
2023-04-09T02:33:18.812Z,0.00
2023-04-09T02:34:19.019Z,0.00
2023-04-09T02:35:19.231Z,0.00
2023-04-09T02:36:19.440Z,0.00
2023-04-09T02:37:20.131Z,0.00
2023-04-09T02:38:19.790Z,0.00
2023-04-09T02:39:19.986Z,0.00
2023-04-09T02:40:20.207Z,0.00
2023-04-09T02:41:20.387Z,0.00
2023-04-09T02:42:20.567Z,0.00
2023-04-09T02:43:20.758Z,0.00
2023-04-09T02:44:21.581Z,0.00
2023-04-09T02:45:21.152Z,0.00
2023-04-09T02:46:21.384Z,0.00
2023-04-09T02:47:22.099Z,0.00
2023-04-09T02:48:22.615Z,0.00
2023-04-09T02:49:22.577Z,0.00
2023-04-09T02:50:22.145Z,0.00
2023-04-09T02:51:22.373Z,0.00
2023-04-09T02:52:22.586Z,0.00
2023-04-09T02:53:22.754Z,0.00
2023-04-09T02:54:22.937Z,0.00
2023-04-09T02:55:23.165Z,0.00
2023-04-09T02:56:23.960Z,0.00
2023-04-09T02:57:24.118Z,0.00
2023-04-09T02:58:23.642Z,0.00
2023-04-09T02:59:23.869Z,0.00
2023-04-09T03:00:24.065Z,0.00
2023-04-09T03:01:25.597Z,0.00
2023-04-09T03:02:25.815Z,0.00
2023-04-09T03:03:24.688Z,0.00
2023-04-09T03:04:24.743Z,0.00
2023-04-09T03:05:26.095Z,0.00
2023-04-09T03:06:25.151Z,0.00
2023-04-09T03:07:26.121Z,0.00
2023-04-09T03:08:25.508Z,0.00
2023-04-09T03:09:25.683Z,0.00
2023-04-09T03:10:25.873Z,0.00
2023-04-09T03:11:27.081Z,0.00
2023-04-09T03:12:26.222Z,0.00
2023-04-09T03:13:27.953Z,0.00
2023-04-09T03:14:26.592Z,0.00
2023-04-09T03:15:27.626Z,0.00
2023-04-09T03:16:26.996Z,0.00
2023-04-09T03:17:27.668Z,0.00
2023-04-09T03:18:28.117Z,0.00
2023-04-09T03:19:28.085Z,0.00
2023-04-09T03:20:27.648Z,0.00
2023-04-09T03:21:27.862Z,0.00
2023-04-09T03:22:28.049Z,0.00
2023-04-09T03:23:28.239Z,0.00
2023-04-09T03:24:29.133Z,0.00
2023-04-09T03:25:28.569Z,0.00
2023-04-09T03:26:28.784Z,0.00
2023-04-09T03:27:29.625Z,0.00
2023-04-09T03:28:30.089Z,0.00
2023-04-09T03:29:29.344Z,0.00
2023-04-09T03:30:29.545Z,0.00
2023-04-09T03:31:30.716Z,0.00
2023-04-09T03:32:29.878Z,0.00
2023-04-09T03:33:30.030Z,0.00
2023-04-09T03:34:30.175Z,0.00
2023-04-09T03:35:30.339Z,0.00
2023-04-09T03:36:30.501Z,0.00
2023-04-09T03:37:30.630Z,0.00
2023-04-09T03:38:30.801Z,0.00
2023-04-09T03:39:31.006Z,0.00
2023-04-09T03:40:32.109Z,0.00
2023-04-09T03:41:31.353Z,0.00
2023-04-09T03:42:31.506Z,0.00
2023-04-09T03:43:32.591Z,0.00
2023-04-09T03:44:31.817Z,0.00
2023-04-09T03:45:32.590Z,0.00
2023-04-09T03:46:32.974Z,0.00
2023-04-09T03:47:33.602Z,0.00
2023-04-09T03:48:32.605Z,0.00
2023-04-09T03:49:33.593Z,0.00
2023-04-09T03:50:32.995Z,0.00
2023-04-09T03:51:33.153Z,0.00
2023-04-09T03:52:33.372Z,0.00
2023-04-09T03:53:33.511Z,0.00
2023-04-09T03:54:34.686Z,0.00
2023-04-09T03:55:34.590Z,0.00
2023-04-09T03:56:35.600Z,0.00
2023-04-09T03:57:34.106Z,0.00
2023-04-09T03:58:34.301Z,4.00
2023-04-09T03:59:35.092Z,0.00
2023-04-09T04:00:34.648Z,0.00
2023-04-09T04:01:34.939Z,0.00
2023-04-09T04:02:36.650Z,0.00
2023-04-09T04:03:37.170Z,0.00
2023-04-09T04:04:35.464Z,0.00
2023-04-09T04:05:35.643Z,0.00
2023-04-09T04:06:35.709Z,0.00
2023-04-09T04:07:36.665Z,0.00
2023-04-09T04:08:36.051Z,0.00
2023-04-09T04:09:36.238Z,0.00
2023-04-09T04:10:36.445Z,0.00
2023-04-09T04:11:36.609Z,4.00
2023-04-09T04:12:36.772Z,4.00
2023-04-09T04:13:38.088Z,0.00
2023-04-09T04:14:38.100Z,0.00
2023-04-09T04:15:37.652Z,4.00
2023-04-09T04:16:37.466Z,4.00
2023-04-09T04:17:38.625Z,4.00
2023-04-09T04:18:37.805Z,4.00
2023-04-09T04:19:37.942Z,4.00
2023-04-09T04:20:39.092Z,4.00
2023-04-09T04:21:39.101Z,4.00
2023-04-09T04:22:39.095Z,8.00
2023-04-09T04:23:38.713Z,12.00
2023-04-09T04:24:38.864Z,12.00
2023-04-09T04:25:39.053Z,12.00
2023-04-09T04:26:39.183Z,16.00
2023-04-09T04:27:39.310Z,20.00
2023-04-09T04:28:39.438Z,20.00
2023-04-09T04:29:39.589Z,28.00
2023-04-09T04:30:40.585Z,32.00
2023-04-09T04:31:41.167Z,40.00
2023-04-09T04:32:40.211Z,44.00
2023-04-09T04:33:41.153Z,52.00
2023-04-09T04:34:40.547Z,60.00
2023-04-09T04:35:40.804Z,72.00
2023-04-09T04:36:42.635Z,80.00
2023-04-09T04:37:41.052Z,92.00
2023-04-09T04:38:42.156Z,108.00
2023-04-09T04:39:41.379Z,120.00
2023-04-09T04:40:42.154Z,136.00
2023-04-09T04:41:41.660Z,152.00
2023-04-09T04:42:42.626Z,172.00
2023-04-09T04:43:42.000Z,192.00
2023-04-09T04:44:42.130Z,212.00
2023-04-09T04:45:42.273Z,236.00
2023-04-09T04:46:42.430Z,260.00
2023-04-09T04:47:42.620Z,284.00
2023-04-09T04:48:43.602Z,312.00
2023-04-09T04:49:42.951Z,344.00
2023-04-09T04:50:43.076Z,372.00
2023-04-09T04:51:43.318Z,404.00
2023-04-09T04:52:43.486Z,436.00
2023-04-09T04:53:44.628Z,468.00
2023-04-09T04:54:43.732Z,508.00
2023-04-09T04:55:44.678Z,552.00
2023-04-09T04:56:44.050Z,592.00
2023-04-09T04:57:45.603Z,636.00
2023-04-09T04:58:44.361Z,680.00
2023-04-09T04:59:44.523Z,728.00
2023-04-09T05:00:45.679Z,776.00
2023-04-09T05:01:45.626Z,836.00
2023-04-09T05:02:45.283Z,888.00
2023-04-09T05:03:45.523Z,948.00
2023-04-09T05:04:46.141Z,1008.00
2023-04-09T05:05:45.658Z,1068.00
2023-04-09T05:06:45.814Z,1136.00
2023-04-09T05:07:48.105Z,1208.00
2023-04-09T05:08:46.246Z,1280.00
2023-04-09T05:09:47.103Z,1356.00
2023-04-09T05:10:46.655Z,1432.00
2023-04-09T05:11:46.845Z,1508.00
2023-04-09T05:12:47.598Z,1588.00
2023-04-09T05:13:47.231Z,1668.00
2023-04-09T05:14:47.390Z,1748.00
2023-04-09T05:15:47.563Z,1836.00
2023-04-09T05:16:47.794Z,1924.00
2023-04-09T05:17:48.631Z,2008.00
2023-04-09T05:18:50.996Z,2096.00
2023-04-09T05:19:48.202Z,2184.00
2023-04-09T05:20:48.410Z,2276.00
2023-04-09T05:21:48.581Z,2360.00
2023-04-09T05:22:48.733Z,2452.00
2023-04-09T05:23:48.912Z,2548.00
2023-04-09T05:24:49.105Z,2628.00
2023-04-09T05:25:49.264Z,2716.00
2023-04-09T05:26:50.107Z,2808.00
2023-04-09T05:27:49.645Z,2900.00
2023-04-09T05:28:49.946Z,2996.00
2023-04-09T05:29:50.002Z,3088.00
2023-04-09T05:30:50.220Z,3180.00
2023-04-09T05:31:50.683Z,3280.00
2023-04-09T05:32:50.621Z,3380.00
2023-04-09T05:33:50.738Z,3476.00
2023-04-09T05:34:52.110Z,3572.00
2023-04-09T05:35:51.672Z,3672.00
2023-04-09T05:36:51.668Z,3780.00
2023-04-09T05:37:52.111Z,3888.00
2023-04-09T05:38:51.953Z,3996.00
2023-04-09T05:39:52.619Z,4104.00
2023-04-09T05:40:52.020Z,4216.00
2023-04-09T05:41:53.152Z,4952.00
2023-04-09T05:42:52.327Z,5772.00
2023-04-09T05:43:54.392Z,5872.00
2023-04-09T05:44:52.639Z,5368.00
2023-04-09T05:45:52.881Z,7588.00
2023-04-09T05:46:52.968Z,10464.00
2023-04-09T05:47:53.133Z,7952.00
2023-04-09T05:48:53.494Z,6716.00
2023-04-09T05:49:53.508Z,6844.00
2023-04-09T05:50:55.042Z,7420.00
2023-04-09T05:51:54.812Z,7440.00
2023-04-09T05:52:56.145Z,8384.00
2023-04-09T05:53:54.168Z,10968.00
2023-04-09T05:54:55.355Z,10080.00
2023-04-09T05:55:54.530Z,6784.00
2023-04-09T05:56:54.746Z,5908.00
2023-04-09T05:57:54.938Z,6008.00
2023-04-09T05:58:55.133Z,6104.00
2023-04-09T05:59:55.346Z,6208.00
2023-04-09T06:00:56.162Z,6312.00
2023-04-09T06:01:55.773Z,6400.00
2023-04-09T06:02:55.902Z,6492.00
2023-04-09T06:03:58.054Z,6584.00
2023-04-09T06:04:57.203Z,6680.00
2023-04-09T06:05:56.423Z,6784.00
2023-04-09T06:06:56.620Z,6888.00
2023-04-09T06:07:57.661Z,6996.00
2023-04-09T06:08:56.950Z,7092.00
2023-04-09T06:09:57.131Z,7184.00
2023-04-09T06:10:57.322Z,7268.00
2023-04-09T06:11:58.114Z,7364.00
2023-04-09T06:12:58.347Z,7452.00
2023-04-09T06:13:57.863Z,7532.00
2023-04-09T06:14:58.656Z,7624.00
2023-04-09T06:15:59.224Z,7716.00
2023-04-09T06:16:58.990Z,7772.00
2023-04-09T06:17:59.584Z,7816.00
2023-04-09T06:18:59.816Z,7880.00
2023-04-09T06:20:00.616Z,7964.00
2023-04-09T06:20:59.133Z,8048.00
2023-04-09T06:21:59.352Z,8144.00
2023-04-09T06:22:59.544Z,8224.00
2023-04-09T06:24:00.685Z,8300.00
2023-04-09T06:24:59.962Z,8376.00
2023-04-09T06:26:00.167Z,8484.00
2023-04-09T06:27:01.161Z,8588.00
2023-04-09T06:28:00.582Z,8692.00
2023-04-09T06:29:00.733Z,8800.00
2023-04-09T06:30:01.682Z,8908.00
2023-04-09T06:31:01.694Z,10392.00
2023-04-09T06:32:01.262Z,23040.00
2023-04-09T06:33:01.571Z,34016.00
2023-04-09T06:34:01.642Z,39648.00
2023-04-09T06:35:02.619Z,40288.00
2023-04-09T06:36:03.164Z,46176.00
2023-04-09T06:37:02.243Z,53984.00
2023-04-09T06:38:02.341Z,57152.00
2023-04-09T06:39:03.159Z,60128.00
2023-04-09T06:40:02.692Z,55456.00
2023-04-09T06:41:02.896Z,57504.00
2023-04-09T06:42:03.102Z,53664.00
2023-04-09T06:43:04.122Z,43872.00
2023-04-09T06:44:03.404Z,54464.00
2023-04-09T06:45:03.581Z,64480.00
2023-04-09T06:46:03.781Z,56000.00
2023-04-09T06:47:03.980Z,47072.00
2023-04-09T06:48:04.221Z,37280.00
2023-04-09T06:49:04.262Z,25440.00
2023-04-09T06:50:04.398Z,29152.00
2023-04-09T06:51:04.559Z,61632.00
2023-04-09T06:52:04.753Z,61824.00
2023-04-09T06:53:04.896Z,55904.00
2023-04-09T06:54:05.674Z,36832.00
2023-04-09T06:55:05.187Z,16672.00
2023-04-09T06:56:05.410Z,10428.00
2023-04-09T06:57:05.580Z,10428.00
2023-04-09T06:58:06.678Z,10520.00
2023-04-09T06:59:05.948Z,11820.00
2023-04-09T07:00:06.627Z,34784.00
2023-04-09T07:01:06.291Z,60800.00
2023-04-09T07:02:07.214Z,56832.00
2023-04-09T07:03:07.185Z,66560.00
2023-04-09T07:04:06.862Z,70208.00
2023-04-09T07:05:06.972Z,63808.00
2023-04-09T07:06:07.206Z,52288.00
2023-04-09T07:07:07.375Z,48352.00
2023-04-09T07:08:07.578Z,53216.00
2023-04-09T07:09:07.805Z,56512.00
2023-04-09T07:10:07.961Z,65536.00
2023-04-09T07:11:08.146Z,63040.00
2023-04-09T07:12:09.140Z,56832.00
2023-04-09T07:13:09.137Z,56992.00
2023-04-09T07:14:09.179Z,69056.00
2023-04-09T07:15:08.820Z,74304.00
2023-04-09T07:16:09.699Z,73952.00
2023-04-09T07:17:09.173Z,71648.00
2023-04-09T07:18:09.480Z,73472.00
2023-04-09T07:19:09.539Z,73472.00
2023-04-09T07:20:09.700Z,73792.00
2023-04-09T07:21:09.879Z,74048.00
2023-04-09T07:22:10.049Z,75104.00
2023-04-09T07:23:10.201Z,75200.00
2023-04-09T07:24:10.413Z,75968.00
2023-04-09T07:25:10.563Z,74400.00
2023-04-09T07:26:10.694Z,72704.00
2023-04-09T07:27:12.642Z,70368.00
2023-04-09T07:28:11.696Z,59488.00
2023-04-09T07:29:11.227Z,57632.00
2023-04-09T07:30:11.385Z,57152.00
2023-04-09T07:31:11.601Z,54304.00
2023-04-09T07:32:11.748Z,51104.00
2023-04-09T07:33:11.919Z,42656.00
2023-04-09T07:34:13.157Z,39680.00
2023-04-09T07:35:12.295Z,25888.00
2023-04-09T07:36:13.126Z,12456.00
2023-04-09T07:37:14.158Z,11900.00
2023-04-09T07:38:12.864Z,11748.00
2023-04-09T07:39:13.091Z,11740.00
2023-04-09T07:40:14.162Z,11772.00
2023-04-09T07:41:13.412Z,11860.00
2023-04-09T07:42:14.149Z,12356.00
2023-04-09T07:43:13.778Z,22464.00
2023-04-09T07:44:13.921Z,39328.00
2023-04-09T07:45:15.694Z,46944.00
2023-04-09T07:46:14.389Z,32800.00
2023-04-09T07:47:15.150Z,27488.00
2023-04-09T07:48:14.652Z,40288.00
2023-04-09T07:49:14.810Z,44000.00
2023-04-09T07:50:15.664Z,54912.00
2023-04-09T07:51:16.151Z,45536.00
2023-04-09T07:52:17.157Z,40992.00
2023-04-09T07:53:15.515Z,42560.00
2023-04-09T07:54:15.711Z,41056.00
2023-04-09T07:55:16.830Z,34272.00
2023-04-09T07:56:16.114Z,18016.00
2023-04-09T07:57:18.156Z,12628.00
2023-04-09T07:58:16.420Z,12748.00
2023-04-09T07:59:16.623Z,26592.00
2023-04-09T08:00:16.821Z,48896.00
2023-04-09T08:01:17.659Z,54048.00
2023-04-09T08:02:17.245Z,45824.00
2023-04-09T08:03:17.521Z,40256.00
2023-04-09T08:04:18.430Z,47296.00
2023-04-09T08:05:17.854Z,55136.00
2023-04-09T08:06:17.948Z,59776.00
2023-04-09T08:07:18.128Z,67072.00
2023-04-09T08:08:18.291Z,60800.00
2023-04-09T08:09:18.510Z,70944.00
2023-04-09T08:10:18.583Z,73952.00
2023-04-09T08:11:18.772Z,60928.00
2023-04-09T08:12:18.956Z,39296.00
2023-04-09T08:13:19.165Z,30016.00
2023-04-09T08:14:19.377Z,30528.00
2023-04-09T08:15:19.578Z,31456.00
2023-04-09T08:16:19.861Z,31360.00
2023-04-09T08:17:19.927Z,30016.00
2023-04-09T08:18:20.716Z,28992.00
2023-04-09T08:19:20.382Z,30688.00
2023-04-09T08:20:20.475Z,27296.00
2023-04-09T08:21:20.621Z,23392.00
2023-04-09T08:22:20.821Z,29408.00
2023-04-09T08:23:21.670Z,27360.00
2023-04-09T08:24:21.210Z,26016.00
2023-04-09T08:25:21.398Z,23808.00
2023-04-09T08:26:21.564Z,21088.00
2023-04-09T08:27:21.778Z,24896.00
2023-04-09T08:28:21.969Z,31040.00
2023-04-09T08:29:22.160Z,23008.00
2023-04-09T08:30:23.245Z,25888.00
2023-04-09T08:31:24.243Z,41376.00
2023-04-09T08:32:22.770Z,26528.00
2023-04-09T08:33:22.859Z,30240.00
2023-04-09T08:34:23.682Z,31584.00
2023-04-09T08:35:25.675Z,24288.00
2023-04-09T08:36:23.440Z,27648.00
2023-04-09T08:37:23.622Z,24128.00
2023-04-09T08:38:23.777Z,28416.00
2023-04-09T08:39:23.935Z,35264.00
2023-04-09T08:40:25.041Z,31168.00
2023-04-09T08:41:24.296Z,25440.00
2023-04-09T08:42:24.448Z,20448.00
2023-04-09T08:43:33.697Z,16640.00
2023-04-09T08:44:26.777Z,21120.00
2023-04-09T08:45:25.684Z,24256.00
2023-04-09T08:46:25.273Z,23968.00
2023-04-09T08:47:25.567Z,24096.00
2023-04-09T08:48:26.732Z,24800.00
2023-04-09T08:49:25.898Z,24704.00
2023-04-09T08:50:26.058Z,27584.00
2023-04-09T08:51:26.226Z,28192.00
2023-04-09T08:52:26.400Z,19904.00
2023-04-09T08:53:26.641Z,27104.00
2023-04-09T08:54:26.906Z,21376.00
2023-04-09T08:55:26.972Z,19680.00
2023-04-09T08:56:27.190Z,23456.00
2023-04-09T08:57:27.367Z,29312.00
2023-04-09T08:58:28.183Z,24896.00
2023-04-09T08:59:28.678Z,27072.00
2023-04-09T09:00:27.802Z,21888.00
2023-04-09T09:01:28.042Z,18016.00
2023-04-09T09:02:28.206Z,23680.00
2023-04-09T09:03:29.271Z,29568.00
2023-04-09T09:04:28.526Z,28800.00
2023-04-09T09:05:29.218Z,28672.00
2023-04-09T09:06:28.857Z,23680.00
2023-04-09T09:07:29.711Z,21984.00
2023-04-09T09:08:29.260Z,23488.00
2023-04-09T09:09:29.454Z,32096.00
2023-04-09T09:10:29.615Z,24288.00
2023-04-09T09:11:29.781Z,10108.00
2023-04-09T09:12:29.934Z,31264.00
2023-04-09T09:13:30.097Z,30496.00
2023-04-09T09:14:30.747Z,46400.00
2023-04-09T09:15:32.183Z,65664.00
2023-04-09T09:16:30.585Z,47808.00
2023-04-09T09:17:30.808Z,35392.00
2023-04-09T09:18:32.693Z,32736.00
2023-04-09T09:19:31.181Z,28384.00
2023-04-09T09:20:31.313Z,24896.00
2023-04-09T09:21:31.464Z,23264.00
2023-04-09T09:22:31.619Z,19776.00
2023-04-09T09:23:31.796Z,18848.00
2023-04-09T09:24:31.917Z,13960.00
2023-04-09T09:25:32.746Z,13652.00
2023-04-09T09:26:33.192Z,13860.00
2023-04-09T09:27:32.749Z,9524.00
2023-04-09T09:28:32.628Z,11004.00
2023-04-09T09:29:32.777Z,16992.00
2023-04-09T09:30:32.990Z,9980.00
2023-04-09T09:31:33.207Z,8840.00
2023-04-09T09:32:35.215Z,9328.00
2023-04-09T09:33:33.477Z,17312.00
2023-04-09T09:34:33.615Z,18144.00
2023-04-09T09:35:33.793Z,18656.00
2023-04-09T09:36:34.735Z,19168.00
2023-04-09T09:37:34.176Z,19136.00
2023-04-09T09:38:36.566Z,18688.00
2023-04-09T09:39:34.560Z,17344.00
2023-04-09T09:40:34.751Z,11924.00
2023-04-09T09:41:34.920Z,10080.00
2023-04-09T09:42:35.080Z,10404.00
2023-04-09T09:43:35.236Z,18400.00
2023-04-09T09:44:36.204Z,19040.00
2023-04-09T09:45:35.582Z,17856.00
2023-04-09T09:46:37.288Z,17184.00
2023-04-09T09:47:35.952Z,17024.00
2023-04-09T09:48:36.696Z,17088.00
2023-04-09T09:49:36.370Z,14064.00
2023-04-09T09:50:36.556Z,10736.00
2023-04-09T09:51:36.722Z,12604.00
2023-04-09T09:52:36.895Z,11100.00
2023-04-09T09:53:37.077Z,10660.00
2023-04-09T09:54:37.286Z,10468.00
2023-04-09T09:55:38.240Z,10200.00
2023-04-09T09:56:37.656Z,10528.00
2023-04-09T09:57:37.833Z,10672.00
2023-04-09T09:58:37.995Z,10028.00
2023-04-09T09:59:38.177Z,10216.00
2023-04-09T10:00:38.361Z,10944.00
2023-04-09T10:01:39.575Z,10412.00
2023-04-09T10:02:38.847Z,12656.00
2023-04-09T10:03:38.958Z,9432.00
2023-04-09T10:04:39.169Z,8820.00
2023-04-09T10:05:39.260Z,8736.00
2023-04-09T10:06:40.199Z,9316.00
2023-04-09T10:07:39.605Z,10792.00
2023-04-09T10:08:39.774Z,11444.00
2023-04-09T10:09:40.708Z,10900.00
2023-04-09T10:10:40.117Z,10420.00
2023-04-09T10:11:40.267Z,10260.00
2023-04-09T10:12:40.443Z,10264.00
2023-04-09T10:13:40.606Z,11012.00
2023-04-09T10:14:41.715Z,11324.00
2023-04-09T10:15:42.723Z,11232.00
2023-04-09T10:16:41.096Z,10584.00
2023-04-09T10:17:41.793Z,12400.00
2023-04-09T10:18:41.487Z,12616.00
2023-04-09T10:19:41.658Z,12888.00
2023-04-09T10:20:41.841Z,12092.00
2023-04-09T10:21:42.891Z,9284.00
2023-04-09T10:22:43.148Z,9376.00
2023-04-09T10:23:42.310Z,9536.00
2023-04-09T10:24:42.509Z,11844.00
2023-04-09T10:25:42.692Z,9920.00
2023-04-09T10:26:42.880Z,9932.00
2023-04-09T10:27:43.080Z,10564.00
2023-04-09T10:28:43.245Z,11884.00
2023-04-09T10:29:43.491Z,13276.00
2023-04-09T10:30:43.681Z,11932.00
2023-04-09T10:31:43.869Z,12996.00
2023-04-09T10:32:45.243Z,10284.00
2023-04-09T10:33:44.298Z,11684.00
2023-04-09T10:34:44.797Z,12588.00
2023-04-09T10:35:45.213Z,12160.00
2023-04-09T10:36:46.715Z,11564.00
2023-04-09T10:37:45.753Z,11676.00
2023-04-09T10:38:45.274Z,11776.00
2023-04-09T10:39:45.505Z,11564.00
2023-04-09T10:40:45.697Z,7784.00
2023-04-09T10:41:45.904Z,7484.00
2023-04-09T10:42:47.732Z,7484.00
2023-04-09T10:43:48.723Z,7700.00
2023-04-09T10:44:46.438Z,8060.00
2023-04-09T10:45:47.586Z,11012.00
2023-04-09T10:46:47.779Z,11348.00
2023-04-09T10:47:47.779Z,11444.00
2023-04-09T10:48:47.223Z,11120.00
2023-04-09T10:49:47.404Z,9428.00
2023-04-09T10:50:47.605Z,8256.00
2023-04-09T10:51:49.217Z,10972.00
2023-04-09T10:52:48.731Z,11180.00
2023-04-09T10:53:48.121Z,11188.00
2023-04-09T10:54:48.287Z,11228.00
2023-04-09T10:55:48.497Z,11332.00
2023-04-09T10:56:49.722Z,11140.00
2023-04-09T10:57:48.828Z,11244.00
2023-04-09T10:58:49.729Z,11224.00
2023-04-09T10:59:49.142Z,11136.00
2023-04-09T11:00:49.328Z,10632.00
2023-04-09T11:01:50.789Z,10816.00
2023-04-09T11:02:49.941Z,10596.00
2023-04-09T11:03:49.889Z,9588.00
2023-04-09T11:04:50.758Z,8792.00
2023-04-09T11:05:50.311Z,8024.00
2023-04-09T11:06:52.224Z,8856.00
2023-04-09T11:07:50.719Z,7676.00
2023-04-09T11:08:51.142Z,7428.00
2023-04-09T11:09:51.099Z,7348.00
2023-04-09T11:10:52.325Z,7316.00
2023-04-09T11:11:52.465Z,7272.00
2023-04-09T11:12:52.228Z,7356.00
2023-04-09T11:13:52.281Z,7484.00
2023-04-09T11:14:51.920Z,7768.00
2023-04-09T11:15:52.801Z,8168.00
2023-04-09T11:16:52.248Z,7728.00
2023-04-09T11:17:53.315Z,9144.00
2023-04-09T11:18:52.905Z,7344.00
2023-04-09T11:19:53.731Z,7056.00
2023-04-09T11:20:52.992Z,6924.00
2023-04-09T11:21:53.235Z,7148.00
2023-04-09T11:22:53.393Z,7344.00
2023-04-09T11:23:53.566Z,8012.00
2023-04-09T11:24:53.724Z,8000.00
2023-04-09T11:25:54.808Z,7788.00
2023-04-09T11:26:54.109Z,7820.00
2023-04-09T11:27:54.806Z,7732.00
2023-04-09T11:28:54.455Z,9580.00
2023-04-09T11:29:54.624Z,9428.00
2023-04-09T11:30:55.830Z,9248.00
2023-04-09T11:31:55.087Z,7040.00
2023-04-09T11:32:55.271Z,6884.00
2023-04-09T11:33:55.445Z,6880.00
2023-04-09T11:34:55.649Z,6840.00
2023-04-09T11:35:55.851Z,6720.00
2023-04-09T11:36:56.038Z,6756.00
2023-04-09T11:37:56.221Z,6796.00
2023-04-09T11:38:57.284Z,6832.00
2023-04-09T11:39:57.835Z,6736.00
2023-04-09T11:40:57.754Z,6568.00
2023-04-09T11:41:57.775Z,6376.00
2023-04-09T11:42:57.098Z,6304.00
2023-04-09T11:43:57.335Z,6272.00
2023-04-09T11:44:59.238Z,6264.00
2023-04-09T11:45:58.279Z,6244.00
2023-04-09T11:46:57.960Z,6248.00
2023-04-09T11:47:58.119Z,6608.00
2023-04-09T11:48:58.241Z,8444.00
2023-04-09T11:49:58.448Z,8728.00
2023-04-09T11:50:59.658Z,7672.00
2023-04-09T11:51:59.738Z,6844.00
2023-04-09T11:52:59.023Z,6944.00
2023-04-09T11:53:59.209Z,7004.00
2023-04-09T11:54:59.417Z,7476.00
2023-04-09T11:55:59.615Z,7536.00
2023-04-09T11:56:59.821Z,7616.00
2023-04-09T11:58:00.881Z,8904.00
2023-04-09T11:59:00.742Z,7676.00
2023-04-09T12:00:03.142Z,7320.00
2023-04-09T12:01:00.802Z,7372.00
2023-04-09T12:02:00.712Z,7436.00
2023-04-09T12:03:02.106Z,7496.00
2023-04-09T12:04:02.049Z,8052.00
2023-04-09T12:05:01.334Z,9460.00
2023-04-09T12:06:01.503Z,8168.00
2023-04-09T12:07:01.589Z,9152.00
2023-04-09T12:08:02.741Z,8612.00
2023-04-09T12:09:02.005Z,7020.00
2023-04-09T12:10:02.158Z,8108.00
2023-04-09T12:11:02.357Z,8464.00
2023-04-09T12:12:02.568Z,8264.00
2023-04-09T12:13:02.780Z,8248.00
2023-04-09T12:14:02.919Z,8240.00
2023-04-09T12:15:03.744Z,8052.00
2023-04-09T12:16:03.288Z,6280.00
2023-04-09T12:17:04.279Z,7832.00
2023-04-09T12:18:03.862Z,7524.00
2023-04-09T12:19:03.826Z,7360.00
2023-04-09T12:20:03.975Z,8288.00
2023-04-09T12:21:04.793Z,8452.00
2023-04-09T12:22:06.115Z,8492.00
2023-04-09T12:23:04.803Z,8452.00
2023-04-09T12:24:04.702Z,8296.00
2023-04-09T12:25:04.900Z,8140.00
2023-04-09T12:26:05.060Z,6020.00